Tahsis, Canada
Current Conditions -  °F | °C
As of 7:00 AM on Thursday 30 Oct 2014 (Local Time) from CYZT Reporting Station
Overcast Overcast  
Wind Chill: 54°   Ceiling: 6000
Heat Index: 54°   Visibility: 15mi
Dew Point: 48°   Wind: 29mph
Humidity: 82%   Direction: 110°ESE
Pressure: 29.62"   Gusts: 35mph
Location:  49.92°N, 126.67°W
Report Text: CYZT 301400Z 11025G30KT 15SM BKN060 OVC082 12/09 A2962 RMK SC7AC1 PRESFR SLP029
Loading
Personal Weather Stations






























Interactive Weather Map
Tropical Storm Tracking
New forecast layout! Learn more

10-Day Weather Forecast

Advertisements
Track Severe Weather on mobile